Time;durP1;ratioP1;P1;durP2;ratioP2;P2;SDS_P1;SDS_P2;PMS_P1;PMS_P2;Temp;Humidity;BMP_temperature;BMP_pressure;BME280_temperature;BME280_humidity;BME280_pressure;Samples;Min_cycle;Max_cycle;Signal;HPM_P1;HPM_P2
2023/07/04 00:01:46;;;;;;;3.83;1.85;;;12.90;99.90;;;;;;5055250;28;20049;-68
2023/07/04 00:04:12;;;;;;;4.85;2.20;;;12.80;99.90;;;;;;5037931;28;20045;-69
2023/07/04 00:06:39;;;;;;;6.13;2.70;;;12.80;99.90;;;;;;5055116;28;20132;-69
2023/07/04 00:09:06;;;;;;;5.85;3.20;;;12.80;99.90;;;;;;5055397;28;20083;-69
2023/07/04 00:26:18;;;;;;;5.75;2.30;;;12.60;99.90;;;;;;3854561;26;20118;-68
2023/07/04 00:28:45;;;;;;;7.68;2.28;;;12.60;99.90;;;;;;5053725;28;20139;-68
2023/07/04 00:31:15;;;;;;;2.78;2.08;;;12.60;99.90;;;;;;5054766;28;20041;-70
2023/07/04 00:33:42;;;;;;;5.68;2.70;;;12.60;99.90;;;;;;5054851;28;20457;-68
2023/07/04 00:36:10;;;;;;;5.13;2.00;;;12.50;99.90;;;;;;5054769;28;20037;-70
2023/07/04 00:38:38;;;;;;;2.95;1.70;;;12.50;99.90;;;;;;5054797;28;20049;-67
2023/07/04 00:41:09;;;;;;;6.32;2.13;;;12.50;99.90;;;;;;5054789;28;20084;-68
2023/07/04 00:44:01;;;;;;;6.10;1.77;;;12.40;99.90;;;;;;5054404;28;20380;-69
2023/07/04 00:47:21;;;;;;;4.55;2.25;;;12.40;99.90;;;;;;5053915;28;20055;-68
2023/07/04 00:49:56;;;;;;;5.45;2.13;;;12.40;99.90;;;;;;5054649;28;20045;-71
2023/07/04 00:55:13;;;;;;;5.53;2.85;;;12.30;99.90;;;;;;5257704;22;20061;-70
2023/07/04 00:57:39;;;;;;;2.25;1.70;;;12.30;99.90;;;;;;5013850;28;20046;-69
2023/07/04 01:00:18;;;;;;;4.32;1.80;;;12.30;99.90;;;;;;5014590;28;20367;-69
2023/07/04 01:02:45;;;;;;;5.75;2.22;;;12.20;99.90;;;;;;5014961;28;20052;-69
2023/07/04 01:05:19;;;;;;;8.63;2.35;;;12.20;99.90;;;;;;5014554;28;20046;-70
2023/07/04 01:08:07;;;;;;;3.25;1.90;;;12.20;99.90;;;;;;5014548;28;20046;-69
2023/07/04 01:10:38;;;;;;;4.15;1.92;;;12.10;99.90;;;;;;5014287;28;20042;-69
2023/07/04 01:13:06;;;;;;;3.92;1.73;;;12.10;99.90;;;;;;5014825;28;20066;-69
2023/07/04 01:15:31;;;;;;;3.42;2.08;;;12.10;99.90;;;;;;5014629;28;20491;-69
2023/07/04 01:18:00;;;;;;;3.97;1.88;;;12.10;99.90;;;;;;5013533;28;20129;-69
2023/07/04 01:20:26;;;;;;;4.63;2.20;;;12.10;99.90;;;;;;5014344;28;20041;-69
2023/07/04 01:22:51;;;;;;;5.53;2.28;;;12.10;99.90;;;;;;5014271;28;20038;-69
2023/07/04 01:25:22;;;;;;;6.78;2.22;;;12.00;99.90;;;;;;5014183;28;20056;-69
2023/07/04 01:27:55;;;;;;;8.73;2.72;;;12.10;99.90;;;;;;5014302;28;20498;-69
2023/07/04 01:30:22;;;;;;;2.45;1.95;;;12.00;99.90;;;;;;5014397;28;20042;-69
2023/07/04 01:32:52;;;;;;;7.30;1.92;;;12.00;99.90;;;;;;5013939;28;20137;-69
2023/07/04 01:35:19;;;;;;;4.32;1.95;;;12.00;99.90;;;;;;5014265;28;20119;-69
2023/07/04 01:37:45;;;;;;;4.32;1.75;;;12.00;99.90;;;;;;5014015;28;20046;-69
2023/07/04 01:40:12;;;;;;;3.17;1.58;;;12.00;99.90;;;;;;5014413;28;20470;-70
2023/07/04 01:42:38;;;;;;;3.78;2.35;;;12.00;99.90;;;;;;5014348;28;20045;-70
2023/07/04 01:45:06;;;;;;;7.68;2.20;;;12.00;99.90;;;;;;5014388;28;20046;-69
2023/07/04 01:47:34;;;;;;;3.72;1.77;;;12.00;99.90;;;;;;5013872;28;20486;-69
2023/07/04 01:50:00;;;;;;;2.58;1.70;;;11.90;99.90;;;;;;4996593;28;20050;-69
2023/07/04 01:52:27;;;;;;;5.20;2.20;;;11.90;99.90;;;;;;5013500;28;20045;-69
2023/07/04 01:54:53;;;;;;;6.20;2.05;;;11.90;99.90;;;;;;5013490;28;20050;-69
2023/07/04 01:57:19;;;;;;;4.30;1.92;;;12.00;99.90;;;;;;5014103;28;20093;-69
2023/07/04 01:59:44;;;;;;;5.15;2.45;;;12.00;99.90;;;;;;5014028;28;20378;-70
2023/07/04 02:02:11;;;;;;;5.63;2.60;;;12.00;99.90;;;;;;5013463;28;20042;-69
2023/07/04 02:04:36;;;;;;;3.15;1.60;;;12.00;99.90;;;;;;5013445;28;20088;-70
2023/07/04 02:07:02;;;;;;;2.83;2.35;;;12.00;99.90;;;;;;5013813;28;20045;-70
2023/07/04 02:09:28;;;;;;;5.65;2.25;;;12.10;99.90;;;;;;5013460;28;20052;-68
2023/07/04 02:11:54;;;;;;;3.35;2.50;;;12.10;99.90;;;;;;5013587;28;20050;-69
2023/07/04 02:14:19;;;;;;;3.67;2.40;;;12.10;99.90;;;;;;5013371;28;20052;-68
2023/07/04 02:16:45;;;;;;;5.88;2.00;;;12.00;99.90;;;;;;5013612;28;20045;-69
2023/07/04 02:19:11;;;;;;;5.75;2.33;;;12.10;99.90;;;;;;5013291;28;20046;-68
2023/07/04 02:21:37;;;;;;;3.10;2.30;;;12.10;99.90;;;;;;5013161;28;20077;-68
2023/07/04 02:24:03;;;;;;;3.53;2.42;;;12.10;99.90;;;;;;5013162;28;20046;-68
2023/07/04 02:26:32;;;;;;;5.18;2.85;;;12.10;99.90;;;;;;5013033;28;20053;-68
2023/07/04 02:28:58;;;;;;;6.97;2.97;;;12.10;99.90;;;;;;5013258;28;20393;-68
2023/07/04 02:31:24;;;;;;;5.15;3.58;;;12.20;99.90;;;;;;5013422;28;20046;-68
2023/07/04 02:33:51;;;;;;;7.85;2.88;;;12.20;99.90;;;;;;5013047;28;20050;-68
2023/07/04 02:36:17;;;;;;;9.10;3.40;;;12.20;99.90;;;;;;5013149;28;20046;-69
2023/07/04 02:38:43;;;;;;;6.80;3.67;;;12.20;99.90;;;;;;5013355;28;20052;-69
2023/07/04 02:41:09;;;;;;;6.90;3.40;;;12.20;99.90;;;;;;5013589;28;20120;-68
2023/07/04 02:43:36;;;;;;;5.30;2.80;;;12.20;99.90;;;;;;4995593;28;20049;-69
2023/07/04 02:46:03;;;;;;;6.38;4.22;;;12.20;99.90;;;;;;5012748;28;20482;-69
2023/07/04 02:48:30;;;;;;;8.45;4.63;;;12.10;99.90;;;;;;5013023;28;20053;-68
2023/07/04 02:50:56;;;;;;;6.38;4.55;;;12.20;99.90;;;;;;5012867;28;20073;-68
2023/07/04 02:53:22;;;;;;;7.95;4.78;;;12.20;99.90;;;;;;5013237;28;20113;-68
2023/07/04 02:55:49;;;;;;;8.23;4.47;;;12.20;99.90;;;;;;5013149;28;20470;-69
2023/07/04 02:58:15;;;;;;;12.10;4.80;;;12.20;99.90;;;;;;5012702;28;20116;-68
2023/07/04 03:00:42;;;;;;;7.13;4.15;;;12.20;99.90;;;;;;5012674;28;20038;-68
2023/07/04 03:03:08;;;;;;;9.65;4.68;;;12.20;99.90;;;;;;5012505;28;20054;-69
2023/07/04 03:05:37;;;;;;;7.40;4.25;;;12.20;99.90;;;;;;5012570;28;20045;-68
2023/07/04 03:08:03;;;;;;;10.95;4.57;;;12.30;99.90;;;;;;5012580;28;20077;-68
2023/07/04 03:10:30;;;;;;;7.32;4.90;;;12.30;99.90;;;;;;4995704;28;20422;-68
2023/07/04 03:12:55;;;;;;;10.30;5.95;;;12.40;99.90;;;;;;5013043;28;20092;-68
2023/07/04 03:15:21;;;;;;;10.68;4.95;;;12.40;99.90;;;;;;5014606;28;20049;-69
2023/07/04 03:17:47;;;;;;;12.70;5.47;;;12.50;99.90;;;;;;5017224;28;20584;-68
2023/07/04 03:20:13;;;;;;;9.93;5.22;;;12.60;99.90;;;;;;5016567;28;20107;-68
2023/07/04 03:22:40;;;;;;;7.63;4.95;;;12.60;99.90;;;;;;4999544;28;20452;-68
2023/07/04 03:25:06;;;;;;;6.22;4.00;;;12.60;99.90;;;;;;5016325;28;20057;-69
2023/07/04 03:27:35;;;;;;;7.43;4.15;;;12.70;99.90;;;;;;5016562;28;20493;-69
2023/07/04 03:30:01;;;;;;;5.32;3.95;;;12.70;99.90;;;;;;5016208;28;20103;-68
2023/07/04 03:32:27;;;;;;;7.82;4.43;;;12.70;99.90;;;;;;5016403;28;20141;-68
2023/07/04 03:34:52;;;;;;;6.65;4.00;;;12.80;99.90;;;;;;5016642;28;20458;-69
2023/07/04 03:37:18;;;;;;;10.77;4.53;;;12.80;99.90;;;;;;4998860;28;20046;-69
2023/07/04 03:39:44;;;;;;;7.90;4.13;;;12.80;99.90;;;;;;5016195;28;20052;-69
2023/07/04 03:42:09;;;;;;;8.63;4.45;;;12.90;99.90;;;;;;5016120;28;20050;-69
2023/07/04 03:44:35;;;;;;;3.47;2.85;;;12.90;99.90;;;;;;5016299;28;20045;-69
2023/07/04 03:47:01;;;;;;;4.80;3.35;;;13.00;99.90;;;;;;5016178;28;20497;-69
2023/07/04 03:49:26;;;;;;;9.93;3.88;;;13.00;99.90;;;;;;5016031;28;20497;-69
2023/07/04 03:51:52;;;;;;;7.05;4.10;;;13.00;99.90;;;;;;5016000;28;20128;-69
2023/07/04 03:54:18;;;;;;;7.97;4.13;;;13.00;99.90;;;;;;5016155;28;20458;-69
2023/07/04 03:56:44;;;;;;;7.50;3.95;;;13.00;99.90;;;;;;5014883;28;20129;-69
2023/07/04 03:59:09;;;;;;;7.22;4.22;;;13.00;99.90;;;;;;5014809;28;20058;-68
2023/07/04 04:01:35;;;;;;;5.95;3.20;;;13.00;99.90;;;;;;5014579;28;20038;-68
2023/07/04 04:04:01;;;;;;;9.07;4.13;;;13.10;99.90;;;;;;5014592;28;20053;-70
2023/07/04 04:06:26;;;;;;;9.65;3.60;;;13.10;99.90;;;;;;5013204;28;20361;-69
2023/07/04 04:08:52;;;;;;;5.70;3.67;;;13.20;99.90;;;;;;5015095;28;20041;-71
2023/07/04 04:11:18;;;;;;;6.22;3.70;;;13.20;99.90;;;;;;5014335;28;20508;-70
2023/07/04 04:13:44;;;;;;;9.68;4.60;;;13.20;99.90;;;;;;5014380;28;20061;-69
2023/07/04 04:16:10;;;;;;;5.88;3.85;;;13.20;99.90;;;;;;5014290;28;20046;-70
2023/07/04 04:18:35;;;;;;;5.20;3.38;;;13.20;99.90;;;;;;4997210;28;20053;-70
2023/07/04 04:21:01;;;;;;;6.85;3.90;;;13.20;99.90;;;;;;5014849;28;20061;-70
2023/07/04 04:23:27;;;;;;;7.85;3.47;;;13.20;99.90;;;;;;5014243;28;20470;-70
2023/07/04 04:25:52;;;;;;;8.23;3.75;;;13.20;99.90;;;;;;5014178;28;20042;-69
2023/07/04 04:28:18;;;;;;;8.38;4.00;;;13.20;99.90;;;;;;5014157;28;20049;-70
2023/07/04 04:30:44;;;;;;;9.52;4.18;;;13.20;99.90;;;;;;5014377;28;20456;-70
2023/07/04 04:33:09;;;;;;;10.73;4.20;;;13.20;99.90;;;;;;5014038;28;20042;-70
2023/07/04 04:35:38;;;;;;;9.65;4.50;;;13.20;99.90;;;;;;5014436;28;20046;-70
2023/07/04 04:38:04;;;;;;;7.22;4.20;;;13.20;99.90;;;;;;5014694;28;20096;-70
2023/07/04 04:40:32;;;;;;;6.25;4.32;;;13.30;99.90;;;;;;5014116;28;20038;-70
2023/07/04 04:42:58;;;;;;;7.30;3.95;;;13.30;99.90;;;;;;4996661;28;20379;-70
2023/07/04 04:45:23;;;;;;;11.07;4.63;;;13.40;99.90;;;;;;5014267;28;20048;-69
2023/07/04 04:47:52;;;;;;;9.35;4.43;;;13.40;99.90;;;;;;5013884;28;20049;-70
2023/07/04 04:50:26;;;;;;;8.15;4.10;;;13.50;99.90;;;;;;5013827;28;20543;-70
2023/07/04 04:52:52;;;;;;;9.95;4.72;;;13.60;99.90;;;;;;5013762;28;20045;-69
2023/07/04 04:55:18;;;;;;;7.75;4.45;;;13.60;99.90;;;;;;4975942;28;1095611;-70
2023/07/04 04:57:43;;;;;;;6.68;4.07;;;13.60;99.90;;;;;;5015244;28;20451;-70
2023/07/04 05:00:12;;;;;;;7.40;4.30;;;13.60;99.90;;;;;;5014803;28;20522;-69
2023/07/04 05:02:37;;;;;;;8.35;4.90;;;13.70;99.90;;;;;;5014718;28;20057;-70
2023/07/04 05:05:03;;;;;;;8.15;4.63;;;13.70;99.90;;;;;;5015084;28;20050;-70
2023/07/04 05:07:30;;;;;;;8.10;4.65;;;13.70;99.90;;;;;;5014580;28;20149;-70
2023/07/04 05:09:58;;;;;;;7.72;4.60;;;13.80;99.90;;;;;;5014667;28;20046;-70
2023/07/04 05:12:24;;;;;;;7.38;4.32;;;13.80;99.90;;;;;;5014237;28;20409;-70
2023/07/04 05:14:50;;;;;;;9.07;5.32;;;13.90;99.90;;;;;;5014428;28;20060;-70
2023/07/04 05:17:16;;;;;;;9.73;5.38;;;13.90;99.90;;;;;;5014406;28;20390;-70
2023/07/04 05:19:43;;;;;;;7.22;4.45;;;13.90;99.90;;;;;;5014450;28;20078;-70
2023/07/04 05:22:08;;;;;;;7.10;4.90;;;14.00;99.90;;;;;;5014224;28;20050;-70
2023/07/04 05:24:34;;;;;;;9.35;4.50;;;14.00;99.90;;;;;;5014357;28;20104;-70
2023/07/04 05:27:00;;;;;;;10.32;5.05;;;14.10;99.90;;;;;;5014932;28;20478;-70
2023/07/04 05:29:25;;;;;;;7.57;4.53;;;14.20;99.90;;;;;;5014578;28;20053;-70
2023/07/04 05:31:51;;;;;;;7.28;4.90;;;14.30;99.90;;;;;;5013766;28;20046;-70
2023/07/04 05:34:17;;;;;;;13.57;5.20;;;14.30;99.90;;;;;;5014136;28;20050;-69
2023/07/04 05:36:42;;;;;;;8.32;5.03;;;14.30;99.90;;;;;;5013679;28;20470;-70
2023/07/04 05:39:08;;;;;;;7.95;4.53;;;14.40;99.90;;;;;;5013608;28;20041;-70
2023/07/04 05:41:36;;;;;;;6.75;4.30;;;14.40;99.90;;;;;;5013988;28;20046;-70
2023/07/04 05:44:09;;;;;;;10.63;5.82;;;14.50;99.90;;;;;;5013717;28;20050;-69
2023/07/04 05:46:36;;;;;;;10.13;4.88;;;14.60;99.90;;;;;;4996119;28;20080;-70
2023/07/04 05:49:03;;;;;;;11.35;4.15;;;14.70;99.90;;;;;;5014017;28;20089;-70
2023/07/04 05:51:29;;;;;;;7.57;4.10;;;14.80;99.90;;;;;;5013332;28;20042;-70
2023/07/04 05:53:55;;;;;;;9.05;4.03;;;14.90;99.90;;;;;;5013620;28;20053;-70
2023/07/04 05:56:26;;;;;;;6.90;3.47;;;14.90;99.90;;;;;;5013162;28;20069;-70
2023/07/04 05:59:02;;;;;;;8.40;3.58;;;15.00;99.90;;;;;;5013572;28;20100;-70
2023/07/04 06:01:41;;;;;;;5.25;3.17;;;15.00;99.90;;;;;;5013932;28;20117;-69
2023/07/04 06:04:08;;;;;;;5.25;2.90;;;15.00;99.90;;;;;;5013445;28;20053;-69
2023/07/04 06:06:39;;;;;;;7.78;3.47;;;15.00;99.90;;;;;;5013240;28;20097;-70
2023/07/04 06:09:08;;;;;;;5.57;3.22;;;15.10;99.90;;;;;;4996454;28;20038;-70
2023/07/04 06:11:36;;;;;;;6.57;3.08;;;15.20;99.90;;;;;;5013206;28;20038;-70
2023/07/04 06:14:03;;;;;;;4.05;2.67;;;15.20;99.90;;;;;;5013612;28;20091;-69
2023/07/04 06:16:29;;;;;;;10.35;3.10;;;15.30;99.90;;;;;;5013121;28;20563;-70
2023/07/04 06:18:55;;;;;;;6.05;2.80;;;15.30;99.90;;;;;;5013295;28;20130;-70
2023/07/04 06:21:23;;;;;;;4.10;2.08;;;15.40;99.90;;;;;;5012834;28;20153;-69
2023/07/04 06:23:50;;;;;;;2.65;2.30;;;15.60;99.90;;;;;;5013344;28;20049;-70
2023/07/04 06:26:16;;;;;;;9.48;2.38;;;16.00;99.90;;;;;;5012797;28;20478;-69
2023/07/04 06:28:42;;;;;;;2.92;2.55;;;16.00;99.90;;;;;;5013241;28;20132;-69
2023/07/04 06:31:13;;;;;;;3.08;1.92;;;16.10;99.90;;;;;;5013002;28;20045;-69
2023/07/04 06:33:38;;;;;;;3.47;2.40;;;16.10;99.90;;;;;;5012932;28;20045;-69
2023/07/04 06:36:08;;;;;;;8.50;3.35;;;16.20;99.90;;;;;;5012931;28;20045;-69
2023/07/04 06:38:34;;;;;;;10.38;2.53;;;16.20;99.90;;;;;;4995665;28;20124;-69
2023/07/04 06:41:11;;;;;;;7.75;2.10;;;16.10;99.90;;;;;;5013046;28;20131;-69
2023/07/04 06:43:40;;;;;;;3.75;2.05;;;16.00;99.90;;;;;;5013054;28;20060;-69
2023/07/04 06:46:05;;;;;;;6.18;2.42;;;16.00;99.90;;;;;;5012966;28;20065;-69
2023/07/04 06:48:32;;;;;;;3.40;2.15;;;16.20;99.90;;;;;;5012634;28;20490;-69
2023/07/04 06:51:03;;;;;;;2.50;1.75;;;16.30;99.90;;;;;;5012630;28;20034;-69
2023/07/04 06:53:30;;;;;;;4.22;1.92;;;16.50;99.90;;;;;;5012520;28;20058;-70
2023/07/04 06:56:08;;;;;;;7.15;1.90;;;16.50;99.90;;;;;;5013012;28;20085;-68
2023/07/04 06:58:36;;;;;;;2.67;1.77;;;16.50;99.90;;;;;;5012536;28;20057;-69
2023/07/04 07:01:03;;;;;;;5.30;1.77;;;16.40;99.90;;;;;;5012501;28;20042;-69
2023/07/04 07:03:32;;;;;;;1.90;1.48;;;16.40;99.90;;;;;;5012553;28;20069;-72
2023/07/04 07:06:01;;;;;;;4.80;2.08;;;16.50;99.90;;;;;;5012314;28;20132;-70
2023/07/04 07:08:27;;;;;;;3.10;1.85;;;16.50;99.90;;;;;;5012318;28;20050;-70
2023/07/04 07:11:05;;;;;;;4.68;1.95;;;16.70;99.90;;;;;;5012329;28;20045;-70
2023/07/04 07:13:31;;;;;;;5.72;2.00;;;16.90;99.90;;;;;;5012809;28;20077;-70
2023/07/04 07:16:18;;;;;;;2.55;1.83;;;17.00;99.90;;;;;;5012676;28;20145;-70
2023/07/04 07:18:45;;;;;;;4.05;1.83;;;17.10;99.90;;;;;;5012108;28;20609;-70
2023/07/04 07:21:13;;;;;;;7.22;2.95;;;17.10;99.90;;;;;;5011110;28;20500;-70
2023/07/04 07:23:40;;;;;;;3.50;2.20;;;17.10;99.90;;;;;;4995660;28;20396;-70
2023/07/04 07:26:08;;;;;;;3.65;1.98;;;17.00;99.90;;;;;;5011308;28;20053;-69
2023/07/04 07:28:39;;;;;;;4.20;2.22;;;17.10;99.90;;;;;;5012254;28;20045;-70
2023/07/04 07:31:08;;;;;;;7.07;2.08;;;17.20;99.90;;;;;;5012611;28;20038;-70
2023/07/04 07:33:35;;;;;;;2.83;1.85;;;17.30;99.90;;;;;;5012251;28;20443;-70
2023/07/04 07:36:20;;;;;;;3.20;1.70;;;17.20;99.90;;;;;;5012620;28;20063;-71
2023/07/04 07:38:47;;;;;;;9.35;2.35;;;17.00;99.90;;;;;;5012430;28;20133;-70
2023/07/04 07:41:14;;;;;;;5.20;1.85;;;17.10;99.90;;;;;;4995098;28;20486;-70
2023/07/04 07:43:40;;;;;;;2.97;1.75;;;17.20;99.90;;;;;;5012499;28;20076;-70
2023/07/04 07:46:12;;;;;;;6.70;2.30;;;17.40;99.90;;;;;;5012400;28;20049;-71
2023/07/04 07:48:38;;;;;;;2.63;1.80;;;17.50;99.90;;;;;;5011880;28;20371;-70
2023/07/04 07:51:06;;;;;;;3.38;2.00;;;17.60;99.90;;;;;;5012449;28;20042;-71
2023/07/04 07:53:32;;;;;;;3.95;1.83;;;17.70;99.90;;;;;;5012577;28;20052;-71
2023/07/04 07:55:58;;;;;;;3.95;1.70;;;18.00;99.90;;;;;;5011685;28;20061;-71
2023/07/04 07:58:24;;;;;;;2.85;1.83;;;17.70;99.90;;;;;;5012867;28;20050;-70
2023/07/04 08:00:50;;;;;;;3.58;2.05;;;17.80;99.90;;;;;;5011920;28;20505;-71
2023/07/04 08:03:16;;;;;;;5.07;2.00;;;17.80;99.90;;;;;;5016397;28;20049;-72
2023/07/04 08:05:43;;;;;;;3.50;1.90;;;17.80;99.90;;;;;;5015804;28;20054;-70
2023/07/04 08:08:09;;;;;;;9.07;2.17;;;17.80;99.90;;;;;;5015492;28;20493;-71
2023/07/04 08:10:37;;;;;;;5.35;2.28;;;17.80;99.90;;;;;;5015964;28;20461;-71
2023/07/04 08:13:03;;;;;;;2.47;1.52;;;17.90;99.90;;;;;;5015914;28;20129;-71
2023/07/04 08:15:29;;;;;;;3.05;1.83;;;17.80;99.90;;;;;;5015667;28;20049;-72
2023/07/04 08:17:55;;;;;;;4.25;1.90;;;17.80;99.90;;;;;;5015521;28;20050;-71
2023/07/04 08:20:23;;;;;;;4.18;2.03;;;17.90;99.90;;;;;;5016235;28;20108;-71
2023/07/04 08:22:49;;;;;;;2.85;2.22;;;17.90;99.90;;;;;;5015416;28;20092;-71
2023/07/04 08:25:15;;;;;;;4.47;1.83;;;18.00;99.90;;;;;;5015389;28;20054;-71
2023/07/04 08:27:40;;;;;;;4.50;2.00;;;18.00;99.90;;;;;;5015733;28;20046;-71
2023/07/04 08:30:07;;;;;;;4.88;1.73;;;18.00;99.90;;;;;;4997758;28;20046;-71
2023/07/04 08:32:33;;;;;;;4.18;1.77;;;18.10;99.90;;;;;;5015269;28;20042;-71
2023/07/04 08:35:00;;;;;;;3.88;2.00;;;18.20;99.90;;;;;;5015315;28;20481;-71
2023/07/04 08:37:25;;;;;;;5.25;1.65;;;18.20;99.90;;;;;;5015529;28;20056;-72
2023/07/04 08:39:51;;;;;;;4.32;1.75;;;18.40;99.90;;;;;;5015226;28;20053;-72
2023/07/04 08:42:21;;;;;;;5.38;2.25;;;18.50;99.90;;;;;;5014627;28;20042;-71
2023/07/04 08:44:49;;;;;;;2.92;1.67;;;18.50;99.90;;;;;;5015486;28;20132;-71
2023/07/04 08:47:18;;;;;;;1.65;1.40;;;18.60;99.90;;;;;;5015095;28;20042;-71
2023/07/04 08:49:58;;;;;;;4.05;1.73;;;18.60;99.90;;;;;;5014812;28;20133;-71
2023/07/04 08:52:34;;;;;;;5.53;2.08;;;18.60;99.90;;;;;;5015116;28;20053;-71
2023/07/04 08:55:00;;;;;;;3.25;2.00;;;18.70;99.90;;;;;;5014841;28;20054;-71
2023/07/04 08:57:40;;;;;;;3.80;2.03;;;18.80;99.90;;;;;;5014850;28;20144;-71
2023/07/04 09:00:20;;;;;;;4.60;2.53;;;19.00;99.90;;;;;;5015095;28;20045;-69
2023/07/04 09:02:49;;;;;;;3.88;1.88;;;19.30;99.90;;;;;;5014750;28;20125;-69
2023/07/04 09:05:29;;;;;;;4.70;2.55;;;19.50;99.90;;;;;;5014695;28;20100;-69
2023/07/04 09:08:17;;;;;;;4.25;2.15;;;19.40;99.90;;;;;;5014640;28;20050;-69
2023/07/04 09:10:46;;;;;;;4.55;1.73;;;19.30;99.60;;;;;;5014621;28;20052;-69
2023/07/04 09:13:23;;;;;;;5.13;3.08;;;19.40;99.90;;;;;;5013402;28;20056;-69
2023/07/04 09:15:51;;;;;;;4.32;1.98;;;19.60;99.90;;;;;;5014478;28;20120;-69
2023/07/04 09:18:38;;;;;;;6.88;2.33;;;19.70;99.90;;;;;;5014231;28;20060;-69
2023/07/04 09:21:12;;;;;;;4.88;2.00;;;19.80;99.90;;;;;;5014497;28;20073;-69
2023/07/04 09:23:38;;;;;;;4.40;1.80;;;19.70;99.80;;;;;;5014339;28;20049;-69
2023/07/04 09:26:04;;;;;;;7.05;2.40;;;20.50;99.90;;;;;;4997087;28;20052;-69
2023/07/04 09:28:34;;;;;;;4.45;2.15;;;21.20;99.90;;;;;;5014117;28;20496;-70
2023/07/04 09:31:00;;;;;;;6.63;2.13;;;21.60;99.90;;;;;;5014374;28;20112;-73
2023/07/04 09:33:30;;;;;;;6.97;3.00;;;21.90;99.90;;;;;;5014074;28;20038;-72
2023/07/04 09:35:56;;;;;;;4.88;2.00;;;22.40;99.40;;;;;;5014183;28;20081;-78
2023/07/04 09:38:22;;;;;;;10.23;2.75;;;22.70;99.90;;;;;;4997295;28;20078;-77
2023/07/04 09:40:54;;;;;;;3.38;1.88;;;23.10;99.70;;;;;;5014133;28;20193;-78
2023/07/04 09:43:32;;;;;;;5.75;2.17;;;22.70;97.00;;;;;;4996746;28;20407;-78
2023/07/04 09:46:11;;;;;;;4.38;1.90;;;22.50;95.60;;;;;;4997292;28;20159;-77
2023/07/04 09:48:37;;;;;;;3.45;2.17;;;22.50;94.70;;;;;;4996488;28;20123;-78
2023/07/04 09:51:35;;;;;;;2.70;1.88;;;22.70;98.60;;;;;;5013577;28;20038;-78
2023/07/04 09:54:21;;;;;;;4.28;1.77;;;22.50;93.70;;;;;;4958778;28;20058;-70
2023/07/04 09:56:47;;;;;;;5.00;1.63;;;22.50;92.90;;;;;;5013973;28;20049;-72
2023/07/04 09:59:18;;;;;;;5.25;1.65;;;22.80;97.90;;;;;;5013604;28;20458;-70
2023/07/04 10:01:52;;;;;;;3.85;1.70;;;22.60;92.20;;;;;;5014080;28;20088;-70
2023/07/04 10:04:25;;;;;;;4.10;2.20;;;22.90;93.20;;;;;;5014067;28;20045;-71
2023/07/04 10:06:53;;;;;;;3.70;1.50;;;23.10;94.20;;;;;;4996224;28;20104;-72
2023/07/04 10:09:20;;;;;;;6.18;1.98;;;23.20;95.80;;;;;;5013520;28;20111;-71
2023/07/04 10:11:51;;;;;;;3.97;2.10;;;23.30;95.10;;;;;;5013454;28;20081;-71
2023/07/04 10:14:32;;;;;;;4.22;1.92;;;23.60;94.70;;;;;;5012984;28;20072;-71
2023/07/04 10:17:14;;;;;;;5.32;1.90;;;23.80;92.50;;;;;;5012920;28;20403;-72
2023/07/04 10:19:46;;;;;;;4.25;1.73;;;24.40;92.80;;;;;;5013711;28;20116;-70
2023/07/04 10:22:12;;;;;;;5.80;1.73;;;24.00;92.50;;;;;;5013265;28;20060;-70
2023/07/04 10:24:38;;;;;;;5.38;2.22;;;23.40;91.50;;;;;;5012506;28;20045;-71
2023/07/04 10:27:11;;;;;;;7.20;1.98;;;23.20;94.10;;;;;;5011705;28;20038;-73
2023/07/04 10:29:40;;;;;;;6.20;2.35;;;23.00;91.20;;;;;;5013171;28;20477;-71
2023/07/04 10:32:13;;;;;;;10.80;2.05;;;23.00;93.50;;;;;;5012850;28;20042;-70
2023/07/04 10:34:40;;;;;;;4.95;2.00;;;23.20;93.10;;;;;;5013489;28;20086;-70
2023/07/04 10:37:09;;;;;;;3.78;2.28;;;22.80;93.80;;;;;;5013022;28;20050;-71
2023/07/04 10:39:38;;;;;;;7.53;2.17;;;22.30;91.40;;;;;;5013044;28;20045;-70
2023/07/04 10:42:17;;;;;;;4.70;1.52;;;22.20;92.60;;;;;;5012862;28;20117;-69
2023/07/04 10:44:47;;;;;;;5.40;1.70;;;22.30;91.50;;;;;;5013083;28;20445;-70
2023/07/04 10:47:27;;;;;;;6.05;1.70;;;22.50;92.50;;;;;;5012791;28;20486;-70
2023/07/04 10:49:59;;;;;;;3.83;1.65;;;23.10;92.90;;;;;;4995708;28;20046;-71
2023/07/04 10:52:31;;;;;;;4.80;2.03;;;23.10;92.90;;;;;;5012461;28;20057;-71
2023/07/04 10:54:58;;;;;;;2.57;1.63;;;23.00;91.80;;;;;;5012785;28;20054;-71
2023/07/04 10:57:30;;;;;;;3.78;1.95;;;23.00;93.00;;;;;;5012468;28;20277;-71
2023/07/04 11:00:01;;;;;;;2.83;1.38;;;22.40;91.00;;;;;;4995137;28;20042;-70
2023/07/04 11:03:04;;;;;;;4.50;1.83;;;22.00;92.20;;;;;;5012424;28;20054;-70
2023/07/04 11:05:43;;;;;;;3.17;1.60;;;22.00;92.50;;;;;;4988890;28;20076;-70
2023/07/04 11:08:15;;;;;;;5.47;1.73;;;21.90;91.90;;;;;;5012336;28;20048;-71
2023/07/04 11:10:43;;;;;;;7.27;2.40;;;22.10;92.70;;;;;;5012877;28;20050;-71
2023/07/04 11:13:16;;;;;;;3.70;2.10;;;21.80;92.40;;;;;;5012798;28;20280;-70
2023/07/04 11:15:42;;;;;;;4.03;2.17;;;21.60;92.20;;;;;;5013017;28;20076;-71
2023/07/04 11:18:15;;;;;;;5.07;2.00;;;21.10;92.60;;;;;;5012482;28;20108;-70
2023/07/04 11:20:41;;;;;;;3.17;2.08;;;21.30;92.80;;;;;;5012528;28;20605;-70
2023/07/04 11:23:19;;;;;;;6.03;2.45;;;21.50;92.60;;;;;;5012137;28;20133;-69
2023/07/04 11:25:44;;;;;;;4.50;2.53;;;21.70;92.60;;;;;;4995342;28;20061;-70
2023/07/04 11:28:35;;;;;;;4.70;2.05;;;21.90;92.90;;;;;;5012097;28;20129;-70
2023/07/04 11:31:27;;;;;;;6.25;2.75;;;22.00;91.90;;;;;;5012643;28;20088;-70
2023/07/04 11:33:52;;;;;;;3.50;1.80;;;21.80;91.20;;;;;;4995450;28;20053;-71
2023/07/04 11:36:37;;;;;;;3.25;1.60;;;21.70;92.30;;;;;;5014273;28;20068;-70
2023/07/04 11:39:04;;;;;;;9.30;2.58;;;21.90;91.80;;;;;;5016593;28;20199;-70
2023/07/04 11:41:38;;;;;;;5.88;2.78;;;22.20;92.20;;;;;;5016011;28;20454;-70
2023/07/04 11:44:18;;;;;;;7.60;2.28;;;21.90;90.30;;;;;;5016216;28;20061;-70
2023/07/04 11:47:03;;;;;;;6.90;2.83;;;21.70;90.90;;;;;;5015697;28;20138;-70
2023/07/04 11:49:30;;;;;;;5.82;2.50;;;21.50;89.90;;;;;;5015884;28;20038;-70
2023/07/04 11:52:25;;;;;;;5.97;2.22;;;21.40;90.50;;;;;;5015635;28;20090;-70
2023/07/04 11:55:05;;;;;;;5.07;2.40;;;21.10;89.50;;;;;;5015536;28;20061;-69
2023/07/04 11:57:59;;;;;;;3.88;2.35;;;21.20;91.10;;;;;;5015604;28;20527;-70
2023/07/04 12:00:44;;;;;;;4.35;2.42;;;21.70;92.20;;;;;;4998698;28;20065;-70
2023/07/04 12:03:16;;;;;;;7.22;2.88;;;21.80;91.00;;;;;;5008420;28;20057;-70
2023/07/04 12:05:48;;;;;;;4.70;2.00;;;21.90;90.20;;;;;;5015636;28;20399;-71
2023/07/04 12:08:40;;;;;;;5.05;2.25;;;21.80;90.80;;;;;;5015621;28;20096;-70
2023/07/04 12:11:32;;;;;;;5.53;2.35;;;21.60;91.00;;;;;;5011136;28;20093;-70
2023/07/04 12:13:58;;;;;;;5.97;2.53;;;21.50;91.50;;;;;;5015657;28;20046;-69
2023/07/04 12:16:24;;;;;;;6.28;2.42;;;21.20;91.30;;;;;;5015375;28;20052;-70
2023/07/04 12:18:49;;;;;;;4.93;2.75;;;21.10;91.50;;;;;;5015812;28;20081;-70
2023/07/04 12:21:18;;;;;;;6.20;2.67;;;21.10;91.40;;;;;;5015771;28;20053;-69
2023/07/04 12:23:46;;;;;;;5.40;2.88;;;21.10;91.40;;;;;;5015341;28;20132;-70
2023/07/04 12:26:18;;;;;;;3.97;2.47;;;20.80;91.60;;;;;;5015593;28;20052;-70
2023/07/04 12:28:46;;;;;;;7.68;2.58;;;20.70;91.70;;;;;;5015886;28;20050;-70
2023/07/04 12:31:14;;;;;;;3.63;2.13;;;20.50;91.40;;;;;;5015185;28;20053;-70
2023/07/04 12:33:44;;;;;;;4.57;2.40;;;20.50;91.90;;;;;;5015853;28;20052;-70
2023/07/04 12:36:15;;;;;;;3.90;2.67;;;20.40;92.20;;;;;;5015130;28;20560;-70
2023/07/04 12:38:49;;;;;;;5.00;2.47;;;20.40;92.00;;;;;;5015220;28;20403;-70
2023/07/04 12:41:16;;;;;;;3.25;2.55;;;20.50;92.30;;;;;;5015140;28;20096;-70
2023/07/04 12:43:42;;;;;;;5.90;2.53;;;20.40;92.40;;;;;;5015557;28;20093;-70
2023/07/04 12:46:13;;;;;;;9.57;2.58;;;20.40;92.60;;;;;;5014568;28;20059;-69
2023/07/04 12:48:40;;;;;;;4.63;2.33;;;20.30;91.30;;;;;;5014882;28;20081;-69
2023/07/04 12:51:13;;;;;;;7.43;2.25;;;20.80;92.40;;;;;;5014849;28;20057;-69
2023/07/04 12:53:41;;;;;;;4.57;2.33;;;21.00;90.60;;;;;;5014832;28;20050;-70
2023/07/04 12:56:10;;;;;;;4.57;2.60;;;21.00;92.00;;;;;;5014574;28;20493;-71
2023/07/04 12:58:46;;;;;;;5.38;2.28;;;20.90;91.40;;;;;;5014668;28;20093;-69
2023/07/04 13:01:21;;;;;;;5.95;2.25;;;20.80;91.10;;;;;;5014754;28;20058;-71
2023/07/04 13:03:47;;;;;;;3.17;2.25;;;20.90;91.40;;;;;;4997124;28;20057;-70
2023/07/04 13:06:19;;;;;;;8.13;2.55;;;20.80;91.20;;;;;;5014522;28;20042;-70
2023/07/04 13:08:49;;;;;;;6.30;2.70;;;20.70;91.30;;;;;;5014692;28;20046;-70
2023/07/04 13:11:16;;;;;;;3.50;2.22;;;20.70;91.70;;;;;;4996961;28;20050;-70
2023/07/04 13:13:49;;;;;;;5.70;2.22;;;20.70;91.40;;;;;;5014244;28;20136;-70
2023/07/04 13:16:28;;;;;;;4.50;2.20;;;20.50;91.20;;;;;;5014412;28;20121;-70